sensor_id;sensor_type;location;lat;lon;timestamp;P1;durP1;ratioP1;P2;durP2;ratioP2
41293;SDS011;27037;52.010;4.446;2023-05-10T00:01:01;77.28;;;38.67;;
41293;SDS011;27037;52.010;4.446;2023-05-10T00:03:28;73.88;;;38.17;;
41293;SDS011;27037;52.010;4.446;2023-05-10T00:05:54;75.88;;;39.13;;
41293;SDS011;27037;52.010;4.446;2023-05-10T00:08:19;78.32;;;40.83;;
41293;SDS011;27037;52.010;4.446;2023-05-10T00:10:45;78.18;;;39.40;;
41293;SDS011;27037;52.010;4.446;2023-05-10T00:13:11;78.65;;;40.22;;
41293;SDS011;27037;52.010;4.446;2023-05-10T00:15:37;84.15;;;42.42;;
41293;SDS011;27037;52.010;4.446;2023-05-10T00:18:02;80.88;;;41.55;;
41293;SDS011;27037;52.010;4.446;2023-05-10T00:20:28;82.45;;;42.28;;
41293;SDS011;27037;52.010;4.446;2023-05-10T00:22:53;80.28;;;42.65;;
41293;SDS011;27037;52.010;4.446;2023-05-10T00:25:19;88.53;;;44.30;;
41293;SDS011;27037;52.010;4.446;2023-05-10T00:27:46;88.20;;;45.13;;
41293;SDS011;27037;52.010;4.446;2023-05-10T00:30:12;84.15;;;43.88;;
41293;SDS011;27037;52.010;4.446;2023-05-10T00:32:38;90.10;;;45.55;;
41293;SDS011;27037;52.010;4.446;2023-05-10T00:35:03;85.93;;;45.58;;
41293;SDS011;27037;52.010;4.446;2023-05-10T00:37:30;83.63;;;45.55;;
41293;SDS011;27037;52.010;4.446;2023-05-10T00:39:55;82.82;;;43.58;;
41293;SDS011;27037;52.010;4.446;2023-05-10T00:42:21;88.53;;;44.92;;
41293;SDS011;27037;52.010;4.446;2023-05-10T00:44:47;103.80;;;47.20;;
41293;SDS011;27037;52.010;4.446;2023-05-10T00:47:12;148.35;;;44.28;;
41293;SDS011;27037;52.010;4.446;2023-05-10T00:49:38;117.90;;;44.03;;
41293;SDS011;27037;52.010;4.446;2023-05-10T00:52:05;210.38;;;44.55;;
41293;SDS011;27037;52.010;4.446;2023-05-10T00:54:31;153.68;;;44.42;;
41293;SDS011;27037;52.010;4.446;2023-05-10T00:56:56;196.85;;;44.17;;
41293;SDS011;27037;52.010;4.446;2023-05-10T00:59:23;260.02;;;43.40;;
41293;SDS011;27037;52.010;4.446;2023-05-10T01:01:49;184.48;;;42.45;;
41293;SDS011;27037;52.010;4.446;2023-05-10T01:04:16;177.77;;;41.70;;
41293;SDS011;27037;52.010;4.446;2023-05-10T01:06:42;155.98;;;41.33;;
41293;SDS011;27037;52.010;4.446;2023-05-10T01:09:08;138.80;;;40.97;;
41293;SDS011;27037;52.010;4.446;2023-05-10T01:11:34;174.65;;;44.42;;
41293;SDS011;27037;52.010;4.446;2023-05-10T01:14:01;142.50;;;43.13;;
41293;SDS011;27037;52.010;4.446;2023-05-10T01:16:28;161.43;;;44.78;;
41293;SDS011;27037;52.010;4.446;2023-05-10T01:18:57;140.68;;;42.97;;
41293;SDS011;27037;52.010;4.446;2023-05-10T01:46:17;123.55;;;45.28;;
41293;SDS011;27037;52.010;4.446;2023-05-10T01:48:51;122.10;;;43.33;;
41293;SDS011;27037;52.010;4.446;2023-05-10T01:51:23;127.80;;;43.17;;
41293;SDS011;27037;52.010;4.446;2023-05-10T01:53:51;118.18;;;42.22;;
41293;SDS011;27037;52.010;4.446;2023-05-10T01:56:24;117.63;;;39.83;;
41293;SDS011;27037;52.010;4.446;2023-05-10T01:58:52;108.47;;;39.63;;
41293;SDS011;27037;52.010;4.446;2023-05-10T02:01:20;113.97;;;41.22;;
41293;SDS011;27037;52.010;4.446;2023-05-10T02:03:46;114.47;;;40.50;;
41293;SDS011;27037;52.010;4.446;2023-05-10T02:06:14;115.75;;;39.33;;
41293;SDS011;27037;52.010;4.446;2023-05-10T02:08:43;116.80;;;40.55;;
41293;SDS011;27037;52.010;4.446;2023-05-10T02:11:10;110.50;;;40.10;;
41293;SDS011;27037;52.010;4.446;2023-05-10T02:13:38;105.13;;;39.25;;
41293;SDS011;27037;52.010;4.446;2023-05-10T02:16:05;114.72;;;41.10;;
41293;SDS011;27037;52.010;4.446;2023-05-10T02:18:32;118.80;;;42.30;;
41293;SDS011;27037;52.010;4.446;2023-05-10T02:20:59;108.88;;;41.75;;
41293;SDS011;27037;52.010;4.446;2023-05-10T02:23:27;106.03;;;40.60;;
41293;SDS011;27037;52.010;4.446;2023-05-10T02:25:54;118.13;;;42.35;;
41293;SDS011;27037;52.010;4.446;2023-05-10T02:28:22;104.35;;;42.63;;
41293;SDS011;27037;52.010;4.446;2023-05-10T02:30:50;107.70;;;42.80;;
41293;SDS011;27037;52.010;4.446;2023-05-10T02:33:17;110.90;;;43.60;;
41293;SDS011;27037;52.010;4.446;2023-05-10T02:35:43;115.93;;;42.67;;
41293;SDS011;27037;52.010;4.446;2023-05-10T02:38:09;110.53;;;44.38;;
41293;SDS011;27037;52.010;4.446;2023-05-10T02:40:37;107.65;;;45.50;;
41293;SDS011;27037;52.010;4.446;2023-05-10T02:43:03;109.40;;;44.17;;
41293;SDS011;27037;52.010;4.446;2023-05-10T02:45:31;98.55;;;42.78;;
41293;SDS011;27037;52.010;4.446;2023-05-10T02:47:59;104.57;;;45.67;;
41293;SDS011;27037;52.010;4.446;2023-05-10T02:50:28;102.88;;;45.90;;
41293;SDS011;27037;52.010;4.446;2023-05-10T02:52:59;90.47;;;39.40;;
41293;SDS011;27037;52.010;4.446;2023-05-10T02:55:29;97.03;;;43.83;;
41293;SDS011;27037;52.010;4.446;2023-05-10T02:57:58;81.50;;;41.83;;
41293;SDS011;27037;52.010;4.446;2023-05-10T03:00:25;88.13;;;44.63;;
41293;SDS011;27037;52.010;4.446;2023-05-10T03:02:51;90.40;;;42.33;;
41293;SDS011;27037;52.010;4.446;2023-05-10T03:05:17;84.43;;;42.45;;
41293;SDS011;27037;52.010;4.446;2023-05-10T03:07:43;88.97;;;42.65;;
41293;SDS011;27037;52.010;4.446;2023-05-10T03:10:09;87.55;;;43.33;;
41293;SDS011;27037;52.010;4.446;2023-05-10T03:20:57;84.78;;;44.42;;
41293;SDS011;27037;52.010;4.446;2023-05-10T03:23:30;86.30;;;45.53;;
41293;SDS011;27037;52.010;4.446;2023-05-10T03:26:12;93.97;;;45.75;;
41293;SDS011;27037;52.010;4.446;2023-05-10T03:28:45;79.72;;;42.65;;
41293;SDS011;27037;52.010;4.446;2023-05-10T03:31:12;83.45;;;45.00;;
41293;SDS011;27037;52.010;4.446;2023-05-10T03:33:45;83.53;;;43.00;;
41293;SDS011;27037;52.010;4.446;2023-05-10T03:36:14;76.63;;;40.78;;
41293;SDS011;27037;52.010;4.446;2023-05-10T03:38:40;91.97;;;49.92;;
41293;SDS011;27037;52.010;4.446;2023-05-10T03:41:06;90.72;;;46.53;;
41293;SDS011;27037;52.010;4.446;2023-05-10T03:43:32;82.40;;;42.90;;
41293;SDS011;27037;52.010;4.446;2023-05-10T03:45:57;82.07;;;43.65;;
41293;SDS011;27037;52.010;4.446;2023-05-10T03:48:23;90.82;;;47.10;;
41293;SDS011;27037;52.010;4.446;2023-05-10T03:50:49;92.30;;;47.53;;
41293;SDS011;27037;52.010;4.446;2023-05-10T03:53:14;84.65;;;44.63;;
41293;SDS011;27037;52.010;4.446;2023-05-10T03:55:40;186.77;;;112.75;;
41293;SDS011;27037;52.010;4.446;2023-05-10T03:58:06;107.97;;;50.35;;
41293;SDS011;27037;52.010;4.446;2023-05-10T04:00:32;91.97;;;46.65;;
41293;SDS011;27037;52.010;4.446;2023-05-10T04:02:57;91.65;;;45.60;;
41293;SDS011;27037;52.010;4.446;2023-05-10T04:05:23;90.60;;;45.72;;
41293;SDS011;27037;52.010;4.446;2023-05-10T04:07:49;91.68;;;43.97;;
41293;SDS011;27037;52.010;4.446;2023-05-10T04:10:15;92.32;;;45.05;;
41293;SDS011;27037;52.010;4.446;2023-05-10T04:12:41;96.00;;;45.30;;
41293;SDS011;27037;52.010;4.446;2023-05-10T04:15:07;96.70;;;43.58;;
41293;SDS011;27037;52.010;4.446;2023-05-10T04:17:33;89.88;;;43.03;;
41293;SDS011;27037;52.010;4.446;2023-05-10T04:19:58;93.03;;;42.70;;
41293;SDS011;27037;52.010;4.446;2023-05-10T04:22:24;95.82;;;43.53;;
41293;SDS011;27037;52.010;4.446;2023-05-10T04:24:50;96.80;;;42.65;;
41293;SDS011;27037;52.010;4.446;2023-05-10T04:27:15;97.32;;;39.10;;
41293;SDS011;27037;52.010;4.446;2023-05-10T04:29:41;89.45;;;34.17;;
41293;SDS011;27037;52.010;4.446;2023-05-10T04:32:06;85.80;;;29.55;;
41293;SDS011;27037;52.010;4.446;2023-05-10T04:34:32;69.65;;;27.73;;
41293;SDS011;27037;52.010;4.446;2023-05-10T04:36:59;70.47;;;27.65;;
41293;SDS011;27037;52.010;4.446;2023-05-10T04:39:24;66.72;;;26.63;;
41293;SDS011;27037;52.010;4.446;2023-05-10T04:41:50;60.35;;;24.40;;
41293;SDS011;27037;52.010;4.446;2023-05-10T04:44:16;44.00;;;18.75;;
41293;SDS011;27037;52.010;4.446;2023-05-10T04:46:41;34.45;;;16.45;;
41293;SDS011;27037;52.010;4.446;2023-05-10T04:49:07;33.75;;;15.27;;
41293;SDS011;27037;52.010;4.446;2023-05-10T04:51:32;26.90;;;12.77;;
41293;SDS011;27037;52.010;4.446;2023-05-10T04:53:58;25.75;;;12.88;;
41293;SDS011;27037;52.010;4.446;2023-05-10T04:56:24;25.75;;;12.48;;
41293;SDS011;27037;52.010;4.446;2023-05-10T04:58:49;25.67;;;11.77;;
41293;SDS011;27037;52.010;4.446;2023-05-10T05:01:15;20.30;;;11.15;;
41293;SDS011;27037;52.010;4.446;2023-05-10T05:03:40;17.88;;;8.57;;
41293;SDS011;27037;52.010;4.446;2023-05-10T05:06:06;15.18;;;8.43;;
41293;SDS011;27037;52.010;4.446;2023-05-10T05:08:32;16.30;;;8.93;;
41293;SDS011;27037;52.010;4.446;2023-05-10T05:10:57;13.38;;;7.55;;
41293;SDS011;27037;52.010;4.446;2023-05-10T05:13:24;11.68;;;7.20;;
41293;SDS011;27037;52.010;4.446;2023-05-10T05:15:49;11.60;;;7.15;;
41293;SDS011;27037;52.010;4.446;2023-05-10T05:18:15;12.23;;;7.75;;
41293;SDS011;27037;52.010;4.446;2023-05-10T05:20:41;12.38;;;7.20;;
41293;SDS011;27037;52.010;4.446;2023-05-10T05:23:06;14.10;;;7.70;;
41293;SDS011;27037;52.010;4.446;2023-05-10T05:25:32;12.10;;;7.57;;
41293;SDS011;27037;52.010;4.446;2023-05-10T05:27:57;13.48;;;8.30;;
41293;SDS011;27037;52.010;4.446;2023-05-10T05:30:23;14.02;;;8.68;;
41293;SDS011;27037;52.010;4.446;2023-05-10T05:32:49;13.65;;;8.35;;
41293;SDS011;27037;52.010;4.446;2023-05-10T05:35:14;15.35;;;9.52;;
41293;SDS011;27037;52.010;4.446;2023-05-10T05:37:40;16.35;;;10.43;;
41293;SDS011;27037;52.010;4.446;2023-05-10T05:40:05;13.88;;;9.98;;
41293;SDS011;27037;52.010;4.446;2023-05-10T05:42:32;17.23;;;11.15;;
41293;SDS011;27037;52.010;4.446;2023-05-10T05:44:57;16.40;;;10.90;;
41293;SDS011;27037;52.010;4.446;2023-05-10T05:47:24;16.70;;;10.48;;
41293;SDS011;27037;52.010;4.446;2023-05-10T05:49:49;16.25;;;10.85;;
41293;SDS011;27037;52.010;4.446;2023-05-10T05:52:15;15.15;;;10.93;;
41293;SDS011;27037;52.010;4.446;2023-05-10T05:54:41;15.90;;;10.68;;
41293;SDS011;27037;52.010;4.446;2023-05-10T05:57:06;16.63;;;9.80;;
41293;SDS011;27037;52.010;4.446;2023-05-10T05:59:32;16.50;;;9.27;;
41293;SDS011;27037;52.010;4.446;2023-05-10T06:01:58;15.93;;;10.00;;
41293;SDS011;27037;52.010;4.446;2023-05-10T06:04:23;15.68;;;9.82;;
41293;SDS011;27037;52.010;4.446;2023-05-10T06:06:49;14.60;;;9.82;;
41293;SDS011;27037;52.010;4.446;2023-05-10T06:09:15;16.45;;;10.65;;
41293;SDS011;27037;52.010;4.446;2023-05-10T06:11:40;16.65;;;10.57;;
41293;SDS011;27037;52.010;4.446;2023-05-10T06:14:06;15.27;;;10.27;;
41293;SDS011;27037;52.010;4.446;2023-05-10T06:16:33;15.27;;;9.80;;
41293;SDS011;27037;52.010;4.446;2023-05-10T06:18:59;14.38;;;9.00;;
41293;SDS011;27037;52.010;4.446;2023-05-10T06:21:25;12.57;;;8.57;;
41293;SDS011;27037;52.010;4.446;2023-05-10T06:23:50;14.70;;;9.52;;
41293;SDS011;27037;52.010;4.446;2023-05-10T06:26:16;14.07;;;9.00;;
41293;SDS011;27037;52.010;4.446;2023-05-10T06:28:42;14.70;;;9.52;;
41293;SDS011;27037;52.010;4.446;2023-05-10T06:31:07;12.32;;;8.90;;
41293;SDS011;27037;52.010;4.446;2023-05-10T06:33:33;13.13;;;7.68;;
41293;SDS011;27037;52.010;4.446;2023-05-10T06:35:59;13.55;;;8.10;;
41293;SDS011;27037;52.010;4.446;2023-05-10T06:38:24;11.13;;;7.53;;
41293;SDS011;27037;52.010;4.446;2023-05-10T06:40:50;11.32;;;6.80;;
41293;SDS011;27037;52.010;4.446;2023-05-10T06:43:16;13.13;;;7.30;;
41293;SDS011;27037;52.010;4.446;2023-05-10T06:45:42;11.23;;;6.53;;
41293;SDS011;27037;52.010;4.446;2023-05-10T06:48:08;11.18;;;7.18;;
41293;SDS011;27037;52.010;4.446;2023-05-10T06:50:33;13.95;;;7.65;;
41293;SDS011;27037;52.010;4.446;2023-05-10T06:52:59;15.70;;;8.05;;
41293;SDS011;27037;52.010;4.446;2023-05-10T06:55:26;14.70;;;8.60;;
41293;SDS011;27037;52.010;4.446;2023-05-10T06:57:52;13.40;;;8.10;;
41293;SDS011;27037;52.010;4.446;2023-05-10T07:00:18;13.55;;;8.52;;
41293;SDS011;27037;52.010;4.446;2023-05-10T07:02:44;15.85;;;8.80;;
41293;SDS011;27037;52.010;4.446;2023-05-10T07:05:10;16.85;;;8.90;;
41293;SDS011;27037;52.010;4.446;2023-05-10T07:07:36;18.08;;;8.70;;
41293;SDS011;27037;52.010;4.446;2023-05-10T07:10:02;18.38;;;8.90;;
41293;SDS011;27037;52.010;4.446;2023-05-10T07:12:28;15.00;;;8.43;;
41293;SDS011;27037;52.010;4.446;2023-05-10T07:14:54;10.88;;;6.25;;
41293;SDS011;27037;52.010;4.446;2023-05-10T07:17:20;12.50;;;7.53;;
41293;SDS011;27037;52.010;4.446;2023-05-10T07:19:45;14.52;;;8.05;;
41293;SDS011;27037;52.010;4.446;2023-05-10T07:22:11;13.10;;;7.85;;
41293;SDS011;27037;52.010;4.446;2023-05-10T07:24:37;16.27;;;8.85;;
41293;SDS011;27037;52.010;4.446;2023-05-10T07:27:04;17.20;;;9.00;;
41293;SDS011;27037;52.010;4.446;2023-05-10T07:29:30;17.38;;;9.55;;
41293;SDS011;27037;52.010;4.446;2023-05-10T07:31:55;18.70;;;9.50;;
41293;SDS011;27037;52.010;4.446;2023-05-10T07:34:21;15.43;;;8.93;;
41293;SDS011;27037;52.010;4.446;2023-05-10T07:36:47;17.73;;;9.20;;
41293;SDS011;27037;52.010;4.446;2023-05-10T07:39:12;16.25;;;9.05;;
41293;SDS011;27037;52.010;4.446;2023-05-10T07:41:38;18.27;;;8.52;;
41293;SDS011;27037;52.010;4.446;2023-05-10T07:44:04;13.52;;;7.80;;
41293;SDS011;27037;52.010;4.446;2023-05-10T07:46:30;11.82;;;7.60;;
41293;SDS011;27037;52.010;4.446;2023-05-10T07:48:55;14.10;;;7.45;;
41293;SDS011;27037;52.010;4.446;2023-05-10T07:51:21;11.05;;;6.95;;
41293;SDS011;27037;52.010;4.446;2023-05-10T07:53:47;10.15;;;7.07;;
41293;SDS011;27037;52.010;4.446;2023-05-10T07:56:25;13.88;;;8.23;;
41293;SDS011;27037;52.010;4.446;2023-05-10T07:58:56;12.85;;;7.45;;
41293;SDS011;27037;52.010;4.446;2023-05-10T08:01:23;14.20;;;7.97;;
41293;SDS011;27037;52.010;4.446;2023-05-10T08:03:49;13.35;;;7.95;;
41293;SDS011;27037;52.010;4.446;2023-05-10T08:06:16;13.00;;;8.73;;
41293;SDS011;27037;52.010;4.446;2023-05-10T08:08:43;13.55;;;8.77;;
41293;SDS011;27037;52.010;4.446;2023-05-10T08:11:10;16.38;;;8.40;;
41293;SDS011;27037;52.010;4.446;2023-05-10T08:13:36;15.23;;;8.48;;
41293;SDS011;27037;52.010;4.446;2023-05-10T08:16:01;16.00;;;8.57;;
41293;SDS011;27037;52.010;4.446;2023-05-10T08:18:27;15.40;;;8.88;;
41293;SDS011;27037;52.010;4.446;2023-05-10T08:20:53;16.55;;;9.00;;
41293;SDS011;27037;52.010;4.446;2023-05-10T08:23:18;17.23;;;8.88;;
41293;SDS011;27037;52.010;4.446;2023-05-10T08:25:44;14.25;;;8.40;;
41293;SDS011;27037;52.010;4.446;2023-05-10T08:28:10;16.38;;;9.35;;
41293;SDS011;27037;52.010;4.446;2023-05-10T08:30:35;16.13;;;9.07;;
41293;SDS011;27037;52.010;4.446;2023-05-10T08:33:01;14.95;;;9.05;;
41293;SDS011;27037;52.010;4.446;2023-05-10T08:35:26;17.85;;;8.35;;
41293;SDS011;27037;52.010;4.446;2023-05-10T08:37:52;14.98;;;8.38;;
41293;SDS011;27037;52.010;4.446;2023-05-10T08:40:19;11.82;;;7.60;;
41293;SDS011;27037;52.010;4.446;2023-05-10T08:42:48;12.40;;;7.53;;
41293;SDS011;27037;52.010;4.446;2023-05-10T08:45:32;11.25;;;7.40;;
41293;SDS011;27037;52.010;4.446;2023-05-10T08:48:01;12.05;;;7.97;;
41293;SDS011;27037;52.010;4.446;2023-05-10T08:50:27;12.65;;;7.50;;
41293;SDS011;27037;52.010;4.446;2023-05-10T08:52:55;9.35;;;6.30;;
41293;SDS011;27037;52.010;4.446;2023-05-10T08:55:25;7.43;;;4.97;;
41293;SDS011;27037;52.010;4.446;2023-05-10T08:57:51;8.18;;;5.15;;
41293;SDS011;27037;52.010;4.446;2023-05-10T09:00:17;7.53;;;4.93;;
41293;SDS011;27037;52.010;4.446;2023-05-10T09:02:43;6.63;;;4.82;;
41293;SDS011;27037;52.010;4.446;2023-05-10T09:05:11;7.07;;;4.95;;
41293;SDS011;27037;52.010;4.446;2023-05-10T09:07:37;7.68;;;4.80;;
41293;SDS011;27037;52.010;4.446;2023-05-10T09:10:03;6.07;;;4.57;;
41293;SDS011;27037;52.010;4.446;2023-05-10T09:12:29;7.60;;;4.13;;
41293;SDS011;27037;52.010;4.446;2023-05-10T09:14:55;4.88;;;3.45;;
41293;SDS011;27037;52.010;4.446;2023-05-10T09:17:23;10.80;;;6.93;;
41293;SDS011;27037;52.010;4.446;2023-05-10T09:19:49;14.85;;;8.30;;
41293;SDS011;27037;52.010;4.446;2023-05-10T09:22:15;13.23;;;8.15;;
41293;SDS011;27037;52.010;4.446;2023-05-10T09:24:42;14.70;;;8.15;;
41293;SDS011;27037;52.010;4.446;2023-05-10T09:27:10;14.88;;;8.50;;
41293;SDS011;27037;52.010;4.446;2023-05-10T09:29:39;14.88;;;7.85;;
41293;SDS011;27037;52.010;4.446;2023-05-10T09:32:06;14.45;;;7.35;;
41293;SDS011;27037;52.010;4.446;2023-05-10T09:34:32;11.20;;;6.75;;
41293;SDS011;27037;52.010;4.446;2023-05-10T09:37:00;9.88;;;6.97;;
41293;SDS011;27037;52.010;4.446;2023-05-10T09:39:35;10.90;;;7.20;;
41293;SDS011;27037;52.010;4.446;2023-05-10T09:42:02;11.65;;;7.93;;
41293;SDS011;27037;52.010;4.446;2023-05-10T09:44:35;14.60;;;7.75;;
41293;SDS011;27037;52.010;4.446;2023-05-10T09:47:02;13.30;;;7.80;;
41293;SDS011;27037;52.010;4.446;2023-05-10T09:49:28;13.32;;;7.65;;
41293;SDS011;27037;52.010;4.446;2023-05-10T09:54:26;11.25;;;7.65;;
41293;SDS011;27037;52.010;4.446;2023-05-10T09:56:52;11.73;;;7.07;;
41293;SDS011;27037;52.010;4.446;2023-05-10T09:59:17;10.73;;;6.68;;
41293;SDS011;27037;52.010;4.446;2023-05-10T10:01:48;9.88;;;5.82;;
41293;SDS011;27037;52.010;4.446;2023-05-10T10:04:15;10.98;;;6.80;;
41293;SDS011;27037;52.010;4.446;2023-05-10T10:06:41;12.50;;;6.07;;
41293;SDS011;27037;52.010;4.446;2023-05-10T10:09:07;10.88;;;6.45;;
41293;SDS011;27037;52.010;4.446;2023-05-10T10:11:37;8.85;;;5.50;;
41293;SDS011;27037;52.010;4.446;2023-05-10T10:14:03;10.98;;;5.80;;
41293;SDS011;27037;52.010;4.446;2023-05-10T10:16:30;12.00;;;5.90;;
41293;SDS011;27037;52.010;4.446;2023-05-10T10:18:56;11.15;;;6.30;;
41293;SDS011;27037;52.010;4.446;2023-05-10T10:21:22;11.90;;;7.15;;
41293;SDS011;27037;52.010;4.446;2023-05-10T10:23:49;11.27;;;7.60;;
41293;SDS011;27037;52.010;4.446;2023-05-10T10:26:15;13.15;;;8.60;;
41293;SDS011;27037;52.010;4.446;2023-05-10T10:29:19;15.00;;;8.25;;
41293;SDS011;27037;52.010;4.446;2023-05-10T10:31:40;14.65;;;8.43;;
41293;SDS011;27037;52.010;4.446;2023-05-10T10:34:17;14.52;;;8.40;;
41293;SDS011;27037;52.010;4.446;2023-05-10T10:36:54;14.65;;;8.93;;
41293;SDS011;27037;52.010;4.446;2023-05-10T10:39:21;14.77;;;7.82;;
41293;SDS011;27037;52.010;4.446;2023-05-10T10:41:50;10.10;;;6.78;;
41293;SDS011;27037;52.010;4.446;2023-05-10T10:52:41;8.68;;;6.70;;
41293;SDS011;27037;52.010;4.446;2023-05-10T11:02:45;7.30;;;6.03;;
41293;SDS011;27037;52.010;4.446;2023-05-10T11:07:54;11.90;;;6.82;;
41293;SDS011;27037;52.010;4.446;2023-05-10T11:10:21;10.50;;;7.47;;
41293;SDS011;27037;52.010;4.446;2023-05-10T11:13:03;10.98;;;6.80;;
41293;SDS011;27037;52.010;4.446;2023-05-10T11:15:39;12.00;;;8.02;;
41293;SDS011;27037;52.010;4.446;2023-05-10T11:18:24;12.75;;;7.82;;
41293;SDS011;27037;52.010;4.446;2023-05-10T11:21:00;7.45;;;6.28;;
41293;SDS011;27037;52.010;4.446;2023-05-10T11:23:31;7.85;;;6.07;;
41293;SDS011;27037;52.010;4.446;2023-05-10T11:26:12;7.55;;;6.00;;
41293;SDS011;27037;52.010;4.446;2023-05-10T11:28:42;7.85;;;6.10;;
41293;SDS011;27037;52.010;4.446;2023-05-10T11:31:08;8.90;;;5.97;;
41293;SDS011;27037;52.010;4.446;2023-05-10T11:36:20;24.75;;;6.63;;
41293;SDS011;27037;52.010;4.446;2023-05-10T11:38:48;9.68;;;5.68;;
41293;SDS011;27037;52.010;4.446;2023-05-10T11:41:14;11.05;;;6.30;;
41293;SDS011;27037;52.010;4.446;2023-05-10T11:43:42;8.52;;;5.95;;
41293;SDS011;27037;52.010;4.446;2023-05-10T11:46:08;10.13;;;6.40;;
41293;SDS011;27037;52.010;4.446;2023-05-10T11:48:36;8.98;;;6.18;;
41293;SDS011;27037;52.010;4.446;2023-05-10T11:51:06;11.27;;;6.30;;
41293;SDS011;27037;52.010;4.446;2023-05-10T11:53:32;11.50;;;6.47;;
41293;SDS011;27037;52.010;4.446;2023-05-10T11:56:10;13.18;;;6.68;;
41293;SDS011;27037;52.010;4.446;2023-05-10T11:58:37;12.60;;;6.85;;
41293;SDS011;27037;52.010;4.446;2023-05-10T12:01:04;13.60;;;7.30;;
41293;SDS011;27037;52.010;4.446;2023-05-10T12:03:31;11.18;;;6.80;;
41293;SDS011;27037;52.010;4.446;2023-05-10T12:05:57;9.73;;;6.65;;
41293;SDS011;27037;52.010;4.446;2023-05-10T12:08:24;10.32;;;6.45;;
41293;SDS011;27037;52.010;4.446;2023-05-10T12:10:51;10.10;;;6.78;;
41293;SDS011;27037;52.010;4.446;2023-05-10T12:13:19;12.73;;;7.05;;
41293;SDS011;27037;52.010;4.446;2023-05-10T12:15:46;11.32;;;7.20;;
41293;SDS011;27037;52.010;4.446;2023-05-10T12:18:12;10.68;;;7.13;;
41293;SDS011;27037;52.010;4.446;2023-05-10T12:20:39;11.95;;;7.35;;
41293;SDS011;27037;52.010;4.446;2023-05-10T12:23:05;14.13;;;7.07;;
41293;SDS011;27037;52.010;4.446;2023-05-10T12:25:34;11.18;;;6.97;;
41293;SDS011;27037;52.010;4.446;2023-05-10T12:28:05;9.55;;;6.05;;
41293;SDS011;27037;52.010;4.446;2023-05-10T12:30:33;13.10;;;6.47;;
41293;SDS011;27037;52.010;4.446;2023-05-10T12:33:00;11.27;;;6.68;;
41293;SDS011;27037;52.010;4.446;2023-05-10T12:35:48;12.57;;;7.53;;
41293;SDS011;27037;52.010;4.446;2023-05-10T12:41:04;14.32;;;7.60;;
41293;SDS011;27037;52.010;4.446;2023-05-10T12:43:31;11.10;;;7.65;;
41293;SDS011;27037;52.010;4.446;2023-05-10T12:45:57;10.77;;;6.70;;
41293;SDS011;27037;52.010;4.446;2023-05-10T12:48:24;9.38;;;6.50;;
41293;SDS011;27037;52.010;4.446;2023-05-10T12:50:50;12.20;;;6.45;;
41293;SDS011;27037;52.010;4.446;2023-05-10T12:53:16;9.98;;;5.95;;
41293;SDS011;27037;52.010;4.446;2023-05-10T12:55:42;12.95;;;6.65;;
41293;SDS011;27037;52.010;4.446;2023-05-10T12:58:08;9.45;;;6.50;;
41293;SDS011;27037;52.010;4.446;2023-05-10T13:00:34;8.85;;;6.32;;
41293;SDS011;27037;52.010;4.446;2023-05-10T13:03:00;10.35;;;5.95;;
41293;SDS011;27037;52.010;4.446;2023-05-10T13:05:25;12.07;;;6.13;;
41293;SDS011;27037;52.010;4.446;2023-05-10T13:07:51;10.93;;;6.00;;
41293;SDS011;27037;52.010;4.446;2023-05-10T13:10:16;9.75;;;5.68;;
41293;SDS011;27037;52.010;4.446;2023-05-10T13:12:42;8.93;;;5.47;;
41293;SDS011;27037;52.010;4.446;2023-05-10T13:15:08;11.48;;;6.70;;
41293;SDS011;27037;52.010;4.446;2023-05-10T13:17:33;11.40;;;6.93;;
41293;SDS011;27037;52.010;4.446;2023-05-10T13:19:59;9.90;;;6.63;;
41293;SDS011;27037;52.010;4.446;2023-05-10T13:22:25;11.18;;;6.90;;
41293;SDS011;27037;52.010;4.446;2023-05-10T13:24:50;9.93;;;5.70;;
41293;SDS011;27037;52.010;4.446;2023-05-10T13:27:16;10.18;;;5.75;;
41293;SDS011;27037;52.010;4.446;2023-05-10T13:29:41;11.00;;;6.05;;
41293;SDS011;27037;52.010;4.446;2023-05-10T13:32:07;12.82;;;6.10;;
41293;SDS011;27037;52.010;4.446;2023-05-10T13:34:33;11.60;;;5.80;;
41293;SDS011;27037;52.010;4.446;2023-05-10T13:37:00;8.73;;;5.30;;
41293;SDS011;27037;52.010;4.446;2023-05-10T13:39:26;8.20;;;5.22;;
41293;SDS011;27037;52.010;4.446;2023-05-10T13:41:52;9.02;;;5.43;;
41293;SDS011;27037;52.010;4.446;2023-05-10T13:44:17;9.88;;;5.72;;
41293;SDS011;27037;52.010;4.446;2023-05-10T13:46:43;7.93;;;4.68;;
41293;SDS011;27037;52.010;4.446;2023-05-10T13:49:09;11.43;;;5.60;;
41293;SDS011;27037;52.010;4.446;2023-05-10T13:51:35;9.27;;;5.07;;
41293;SDS011;27037;52.010;4.446;2023-05-10T13:54:03;8.73;;;5.43;;
41293;SDS011;27037;52.010;4.446;2023-05-10T13:56:29;8.93;;;5.10;;
41293;SDS011;27037;52.010;4.446;2023-05-10T13:58:56;8.05;;;5.20;;
41293;SDS011;27037;52.010;4.446;2023-05-10T14:01:23;9.30;;;5.50;;
41293;SDS011;27037;52.010;4.446;2023-05-10T14:03:49;10.50;;;5.38;;
41293;SDS011;27037;52.010;4.446;2023-05-10T14:06:14;8.63;;;5.50;;
41293;SDS011;27037;52.010;4.446;2023-05-10T14:08:40;9.95;;;6.57;;
41293;SDS011;27037;52.010;4.446;2023-05-10T14:11:05;11.00;;;6.75;;
41293;SDS011;27037;52.010;4.446;2023-05-10T14:13:31;12.73;;;6.57;;
41293;SDS011;27037;52.010;4.446;2023-05-10T14:15:57;13.35;;;6.25;;
41293;SDS011;27037;52.010;4.446;2023-05-10T14:18:25;11.68;;;6.35;;
41293;SDS011;27037;52.010;4.446;2023-05-10T14:20:51;10.85;;;6.75;;
41293;SDS011;27037;52.010;4.446;2023-05-10T14:23:17;10.35;;;6.13;;
41293;SDS011;27037;52.010;4.446;2023-05-10T14:25:44;10.90;;;6.30;;
41293;SDS011;27037;52.010;4.446;2023-05-10T14:28:10;9.13;;;5.25;;
41293;SDS011;27037;52.010;4.446;2023-05-10T14:30:37;8.75;;;5.30;;
41293;SDS011;27037;52.010;4.446;2023-05-10T14:33:02;8.27;;;5.28;;
41293;SDS011;27037;52.010;4.446;2023-05-10T14:35:28;9.02;;;5.32;;
41293;SDS011;27037;52.010;4.446;2023-05-10T14:37:56;8.57;;;5.75;;
41293;SDS011;27037;52.010;4.446;2023-05-10T14:40:21;8.40;;;5.00;;
41293;SDS011;27037;52.010;4.446;2023-05-10T14:42:47;6.95;;;5.10;;
41293;SDS011;27037;52.010;4.446;2023-05-10T14:45:13;9.43;;;5.95;;
41293;SDS011;27037;52.010;4.446;2023-05-10T14:47:39;9.25;;;6.00;;
41293;SDS011;27037;52.010;4.446;2023-05-10T14:50:05;9.57;;;5.55;;
41293;SDS011;27037;52.010;4.446;2023-05-10T14:52:31;8.10;;;5.60;;
41293;SDS011;27037;52.010;4.446;2023-05-10T14:54:56;8.10;;;5.50;;
41293;SDS011;27037;52.010;4.446;2023-05-10T14:57:23;8.77;;;5.18;;
41293;SDS011;27037;52.010;4.446;2023-05-10T14:59:49;8.63;;;5.05;;
41293;SDS011;27037;52.010;4.446;2023-05-10T15:02:15;7.55;;;5.10;;
41293;SDS011;27037;52.010;4.446;2023-05-10T15:04:41;7.50;;;5.13;;
41293;SDS011;27037;52.010;4.446;2023-05-10T15:07:06;7.45;;;5.10;;
41293;SDS011;27037;52.010;4.446;2023-05-10T15:09:32;6.72;;;4.70;;
41293;SDS011;27037;52.010;4.446;2023-05-10T15:11:57;5.70;;;4.30;;
41293;SDS011;27037;52.010;4.446;2023-05-10T15:14:23;5.53;;;4.28;;
41293;SDS011;27037;52.010;4.446;2023-05-10T15:16:49;5.55;;;3.53;;
41293;SDS011;27037;52.010;4.446;2023-05-10T15:19:14;5.40;;;3.95;;
41293;SDS011;27037;52.010;4.446;2023-05-10T15:21:40;4.82;;;3.40;;
41293;SDS011;27037;52.010;4.446;2023-05-10T15:24:09;3.78;;;3.35;;
41293;SDS011;27037;52.010;4.446;2023-05-10T15:26:34;44.47;;;28.60;;
41293;SDS011;27037;52.010;4.446;2023-05-10T15:29:00;12.75;;;9.43;;